sensor_id;sensor_type;location;lat;lon;timestamp;pressure;altitude;pressure_sealevel;temperature;humidity
61086;BME280;46967;48.876;2.136;2022-12-29T00:02:04;100388.91;;;10.96;100.00
61086;BME280;46967;48.876;2.136;2022-12-29T00:04:30;100375.91;;;10.96;100.00
61086;BME280;46967;48.876;2.136;2022-12-29T00:06:55;100387.31;;;10.92;100.00
61086;BME280;46967;48.876;2.136;2022-12-29T00:09:21;100378.63;;;10.93;100.00
61086;BME280;46967;48.876;2.136;2022-12-29T00:11:46;100373.31;;;10.96;100.00
61086;BME280;46967;48.876;2.136;2022-12-29T00:14:12;100371.38;;;11.01;100.00
61086;BME280;46967;48.876;2.136;2022-12-29T00:16:57;100373.03;;;11.04;100.00
61086;BME280;46967;48.876;2.136;2022-12-29T00:19:23;100369.56;;;11.03;100.00
61086;BME280;46967;48.876;2.136;2022-12-29T00:22:12;100370.53;;;11.01;100.00
61086;BME280;46967;48.876;2.136;2022-12-29T00:24:56;100361.22;;;10.95;100.00
61086;BME280;46967;48.876;2.136;2022-12-29T00:27:31;100372.97;;;11.05;100.00
61086;BME280;46967;48.876;2.136;2022-12-29T00:30:21;100360.94;;;11.03;100.00
61086;BME280;46967;48.876;2.136;2022-12-29T00:33:20;100362.69;;;11.02;100.00
61086;BME280;46967;48.876;2.136;2022-12-29T00:36:13;100385.25;;;11.00;100.00
61086;BME280;46967;48.876;2.136;2022-12-29T00:38:44;100396.06;;;10.90;100.00
61086;BME280;46967;48.876;2.136;2022-12-29T00:41:29;100371.25;;;10.82;100.00
61086;BME280;46967;48.876;2.136;2022-12-29T00:44:13;100364.13;;;10.87;100.00
61086;BME280;46967;48.876;2.136;2022-12-29T00:46:41;100362.63;;;10.82;100.00
61086;BME280;46967;48.876;2.136;2022-12-29T00:49:10;100376.16;;;10.90;100.00
61086;BME280;46967;48.876;2.136;2022-12-29T00:51:55;100364.97;;;10.88;100.00
61086;BME280;46967;48.876;2.136;2022-12-29T00:54:21;100376.16;;;10.90;100.00
61086;BME280;46967;48.876;2.136;2022-12-29T00:56:47;100377.22;;;10.84;100.00
61086;BME280;46967;48.876;2.136;2022-12-29T00:59:13;100363.09;;;10.92;100.00
61086;BME280;46967;48.876;2.136;2022-12-29T01:01:39;100363.88;;;10.94;100.00
61086;BME280;46967;48.876;2.136;2022-12-29T01:04:05;100366.53;;;10.92;100.00
61086;BME280;46967;48.876;2.136;2022-12-29T01:06:31;100360.38;;;10.95;100.00
61086;BME280;46967;48.876;2.136;2022-12-29T01:08:57;100367.25;;;10.96;100.00
61086;BME280;46967;48.876;2.136;2022-12-29T01:11:40;100361.34;;;10.92;100.00
61086;BME280;46967;48.876;2.136;2022-12-29T01:14:06;100375.47;;;10.85;100.00
61086;BME280;46967;48.876;2.136;2022-12-29T01:16:32;100366.31;;;10.98;100.00
61086;BME280;46967;48.876;2.136;2022-12-29T01:18:58;100357.78;;;10.95;100.00
61086;BME280;46967;48.876;2.136;2022-12-29T01:21:23;100346.59;;;10.93;100.00
61086;BME280;46967;48.876;2.136;2022-12-29T01:23:49;100351.72;;;10.94;100.00
61086;BME280;46967;48.876;2.136;2022-12-29T01:26:16;100361.16;;;10.97;100.00
61086;BME280;46967;48.876;2.136;2022-12-29T01:28:41;100365.28;;;11.02;100.00
61086;BME280;46967;48.876;2.136;2022-12-29T01:31:08;100367.31;;;10.94;100.00
61086;BME280;46967;48.876;2.136;2022-12-29T01:33:34;100368.91;;;10.98;100.00
61086;BME280;46967;48.876;2.136;2022-12-29T01:36:13;100364.06;;;10.89;100.00
61086;BME280;46967;48.876;2.136;2022-12-29T01:38:39;100366.88;;;10.83;100.00
61086;BME280;46967;48.876;2.136;2022-12-29T01:41:06;100364.72;;;10.94;100.00
61086;BME280;46967;48.876;2.136;2022-12-29T01:43:54;100368.00;;;10.99;100.00
61086;BME280;46967;48.876;2.136;2022-12-29T01:46:34;100377.75;;;10.93;100.00
61086;BME280;46967;48.876;2.136;2022-12-29T01:51:35;100358.97;;;10.86;100.00
61086;BME280;46967;48.876;2.136;2022-12-29T01:54:04;100371.06;;;10.87;100.00
61086;BME280;46967;48.876;2.136;2022-12-29T01:56:32;100362.78;;;10.77;99.99
61086;BME280;46967;48.876;2.136;2022-12-29T01:59:04;100353.28;;;10.76;99.31
61086;BME280;46967;48.876;2.136;2022-12-29T02:01:31;100363.72;;;10.75;98.86
61086;BME280;46967;48.876;2.136;2022-12-29T02:03:58;100368.09;;;10.74;96.83
61086;BME280;46967;48.876;2.136;2022-12-29T02:06:31;100369.97;;;10.71;95.45
61086;BME280;46967;48.876;2.136;2022-12-29T02:08:58;100392.28;;;10.75;95.48
61086;BME280;46967;48.876;2.136;2022-12-29T02:11:26;100393.19;;;10.74;93.87
61086;BME280;46967;48.876;2.136;2022-12-29T02:13:52;100406.22;;;10.72;95.16
61086;BME280;46967;48.876;2.136;2022-12-29T02:16:50;100397.63;;;10.70;94.66
61086;BME280;46967;48.876;2.136;2022-12-29T02:19:46;100405.81;;;10.59;95.65
61086;BME280;46967;48.876;2.136;2022-12-29T02:25:38;100381.53;;;10.37;96.78
61086;BME280;46967;48.876;2.136;2022-12-29T02:28:37;100379.06;;;10.33;96.11
61086;BME280;46967;48.876;2.136;2022-12-29T02:31:58;100366.97;;;10.34;95.65
61086;BME280;46967;48.876;2.136;2022-12-29T02:35:25;100372.38;;;10.26;96.17
61086;BME280;46967;48.876;2.136;2022-12-29T02:40:55;100374.81;;;10.31;95.86
61086;BME280;46967;48.876;2.136;2022-12-29T02:48:29;100384.09;;;10.38;94.12
61086;BME280;46967;48.876;2.136;2022-12-29T02:51:04;100382.31;;;10.39;94.61
61086;BME280;46967;48.876;2.136;2022-12-29T02:53:34;100386.69;;;10.38;94.91
61086;BME280;46967;48.876;2.136;2022-12-29T02:56:18;100377.13;;;10.39;95.04
61086;BME280;46967;48.876;2.136;2022-12-29T02:58:44;100365.94;;;10.38;94.81
61086;BME280;46967;48.876;2.136;2022-12-29T03:01:39;100380.66;;;10.38;95.40
61086;BME280;46967;48.876;2.136;2022-12-29T03:13:08;100377.13;;;10.39;93.65
61086;BME280;46967;48.876;2.136;2022-12-29T03:16:18;100372.97;;;10.35;93.32
61086;BME280;46967;48.876;2.136;2022-12-29T03:19:01;100381.94;;;10.24;93.70
61086;BME280;46967;48.876;2.136;2022-12-29T03:21:43;100386.34;;;10.22;94.01
61086;BME280;46967;48.876;2.136;2022-12-29T03:24:52;100370.88;;;10.19;93.14
61086;BME280;46967;48.876;2.136;2022-12-29T03:27:32;100379.25;;;10.27;92.67
61086;BME280;46967;48.876;2.136;2022-12-29T03:30:01;100374.31;;;10.20;92.64
61086;BME280;46967;48.876;2.136;2022-12-29T03:32:54;100383.75;;;10.22;91.25
61086;BME280;46967;48.876;2.136;2022-12-29T03:35:23;100384.75;;;10.18;91.44
61086;BME280;46967;48.876;2.136;2022-12-29T03:40:23;100392.53;;;10.18;89.53
61086;BME280;46967;48.876;2.136;2022-12-29T03:42:50;100384.78;;;10.16;89.82
61086;BME280;46967;48.876;2.136;2022-12-29T03:45:16;100391.78;;;10.14;90.51
61086;BME280;46967;48.876;2.136;2022-12-29T03:47:41;100382.19;;;10.16;90.25
61086;BME280;46967;48.876;2.136;2022-12-29T03:50:06;100385.75;;;10.14;90.75
61086;BME280;46967;48.876;2.136;2022-12-29T03:52:33;100383.06;;;10.17;90.29
61086;BME280;46967;48.876;2.136;2022-12-29T03:54:59;100386.66;;;10.13;90.84
61086;BME280;46967;48.876;2.136;2022-12-29T03:57:24;100386.44;;;10.19;90.69
61086;BME280;46967;48.876;2.136;2022-12-29T03:59:49;100414.59;;;10.05;91.39
61086;BME280;46967;48.876;2.136;2022-12-29T04:02:15;100407.59;;;10.07;91.12
61086;BME280;46967;48.876;2.136;2022-12-29T04:04:40;100398.78;;;10.12;90.78
61086;BME280;46967;48.876;2.136;2022-12-29T04:07:06;100402.16;;;10.14;90.53
61086;BME280;46967;48.876;2.136;2022-12-29T04:09:31;100402.09;;;10.16;90.64
61086;BME280;46967;48.876;2.136;2022-12-29T04:11:56;100407.75;;;10.02;91.51
61086;BME280;46967;48.876;2.136;2022-12-29T04:14:22;100398.25;;;10.03;91.66
61086;BME280;46967;48.876;2.136;2022-12-29T04:16:47;100407.50;;;10.10;91.24
61086;BME280;46967;48.876;2.136;2022-12-29T04:19:12;100412.59;;;10.13;91.37
61086;BME280;46967;48.876;2.136;2022-12-29T04:21:38;100417.00;;;10.11;91.29
61086;BME280;46967;48.876;2.136;2022-12-29T04:24:03;100423.88;;;10.12;91.46
61086;BME280;46967;48.876;2.136;2022-12-29T04:26:31;100419.03;;;10.01;92.04
61086;BME280;46967;48.876;2.136;2022-12-29T04:28:57;100411.94;;;10.06;91.94
61086;BME280;46967;48.876;2.136;2022-12-29T04:31:22;100423.16;;;10.07;92.22
61086;BME280;46967;48.876;2.136;2022-12-29T04:33:47;100417.78;;;10.13;91.68
61086;BME280;46967;48.876;2.136;2022-12-29T04:36:13;100417.81;;;10.11;91.63
61086;BME280;46967;48.876;2.136;2022-12-29T04:38:38;100441.78;;;10.18;91.84
61086;BME280;46967;48.876;2.136;2022-12-29T04:41:04;100440.22;;;10.14;92.05
61086;BME280;46967;48.876;2.136;2022-12-29T04:43:29;100437.44;;;10.20;91.81
61086;BME280;46967;48.876;2.136;2022-12-29T04:45:54;100440.03;;;10.20;91.81
61086;BME280;46967;48.876;2.136;2022-12-29T04:48:20;100447.59;;;10.26;91.60
61086;BME280;46967;48.876;2.136;2022-12-29T04:50:48;100438.00;;;10.28;91.10
61086;BME280;46967;48.876;2.136;2022-12-29T04:53:14;100451.59;;;10.37;90.21
61086;BME280;46967;48.876;2.136;2022-12-29T04:55:39;100439.72;;;10.29;90.67
61086;BME280;46967;48.876;2.136;2022-12-29T04:58:05;100441.34;;;10.32;89.36
61086;BME280;46967;48.876;2.136;2022-12-29T05:00:30;100449.13;;;10.32;89.46
61086;BME280;46967;48.876;2.136;2022-12-29T05:02:55;100452.56;;;10.34;88.72
61086;BME280;46967;48.876;2.136;2022-12-29T05:05:21;100463.63;;;10.39;88.24
61086;BME280;46967;48.876;2.136;2022-12-29T05:07:46;100457.66;;;10.36;88.39
61086;BME280;46967;48.876;2.136;2022-12-29T05:10:11;100464.41;;;10.41;87.72
61086;BME280;46967;48.876;2.136;2022-12-29T05:12:37;100447.38;;;10.34;86.75
61086;BME280;46967;48.876;2.136;2022-12-29T05:15:05;100449.81;;;10.37;87.10
61086;BME280;46967;48.876;2.136;2022-12-29T05:17:31;100446.50;;;10.33;87.86
61086;BME280;46967;48.876;2.136;2022-12-29T05:19:57;100444.03;;;10.29;87.78
61086;BME280;46967;48.876;2.136;2022-12-29T05:22:22;100462.94;;;10.34;88.02
61086;BME280;46967;48.876;2.136;2022-12-29T05:24:47;100474.16;;;10.35;87.97
61086;BME280;46967;48.876;2.136;2022-12-29T05:27:13;100465.09;;;10.20;88.49
61086;BME280;46967;48.876;2.136;2022-12-29T05:29:39;100467.84;;;10.15;88.57
61086;BME280;46967;48.876;2.136;2022-12-29T05:32:05;100477.06;;;10.24;87.45
61086;BME280;46967;48.876;2.136;2022-12-29T05:34:30;100477.38;;;10.14;87.15
61086;BME280;46967;48.876;2.136;2022-12-29T05:36:55;100484.91;;;10.22;86.75
61086;BME280;46967;48.876;2.136;2022-12-29T05:39:21;100478.22;;;10.15;86.54
61086;BME280;46967;48.876;2.136;2022-12-29T05:41:46;100480.69;;;10.18;86.45
61086;BME280;46967;48.876;2.136;2022-12-29T05:44:12;100480.94;;;10.12;86.22
61086;BME280;46967;48.876;2.136;2022-12-29T05:46:37;100484.41;;;10.11;86.18
61086;BME280;46967;48.876;2.136;2022-12-29T05:49:02;100488.06;;;10.04;85.80
61086;BME280;46967;48.876;2.136;2022-12-29T05:51:28;100487.19;;;10.05;86.02
61086;BME280;46967;48.876;2.136;2022-12-29T05:53:53;100493.16;;;10.07;85.24
61086;BME280;46967;48.876;2.136;2022-12-29T05:56:19;100498.44;;;10.04;85.00
61086;BME280;46967;48.876;2.136;2022-12-29T05:58:44;100503.50;;;10.08;85.04
61086;BME280;46967;48.876;2.136;2022-12-29T06:01:09;100491.63;;;10.01;84.57
61086;BME280;46967;48.876;2.136;2022-12-29T06:03:35;100490.63;;;10.05;84.33
61086;BME280;46967;48.876;2.136;2022-12-29T06:06:00;100502.66;;;10.08;84.31
61086;BME280;46967;48.876;2.136;2022-12-29T06:08:25;100505.50;;;10.00;84.64
61086;BME280;46967;48.876;2.136;2022-12-29T06:10:51;100515.91;;;9.98;84.13
61086;BME280;46967;48.876;2.136;2022-12-29T06:13:16;100511.47;;;10.02;83.92
61086;BME280;46967;48.876;2.136;2022-12-29T06:15:41;100507.78;;;10.09;83.88
61086;BME280;46967;48.876;2.136;2022-12-29T06:18:07;100530.28;;;10.09;83.77
61086;BME280;46967;48.876;2.136;2022-12-29T06:20:32;100519.16;;;10.05;83.81
61086;BME280;46967;48.876;2.136;2022-12-29T06:22:58;100524.44;;;10.02;84.10
61086;BME280;46967;48.876;2.136;2022-12-29T06:25:23;100525.38;;;10.00;84.25
61086;BME280;46967;48.876;2.136;2022-12-29T06:27:49;100525.53;;;9.95;84.76
61086;BME280;46967;48.876;2.136;2022-12-29T06:30:14;100537.75;;;9.91;85.05
61086;BME280;46967;48.876;2.136;2022-12-29T06:32:40;100548.88;;;9.95;84.70
61086;BME280;46967;48.876;2.136;2022-12-29T06:35:05;100552.28;;;9.95;85.16
61086;BME280;46967;48.876;2.136;2022-12-29T06:37:31;100554.84;;;9.97;84.61
61086;BME280;46967;48.876;2.136;2022-12-29T06:39:57;100563.47;;;9.97;84.78
61086;BME280;46967;48.876;2.136;2022-12-29T06:42:22;100567.94;;;9.92;85.16
61086;BME280;46967;48.876;2.136;2022-12-29T06:44:48;100573.91;;;9.96;85.36
61086;BME280;46967;48.876;2.136;2022-12-29T06:47:13;100573.81;;;9.97;84.90
61086;BME280;46967;48.876;2.136;2022-12-29T06:49:39;100569.56;;;9.96;84.59
61086;BME280;46967;48.876;2.136;2022-12-29T06:52:04;100576.50;;;9.96;85.01
61086;BME280;46967;48.876;2.136;2022-12-29T06:54:33;100570.44;;;9.95;85.22
61086;BME280;46967;48.876;2.136;2022-12-29T06:56:58;100573.94;;;9.94;85.17
61086;BME280;46967;48.876;2.136;2022-12-29T06:59:25;100585.16;;;9.95;85.00
61086;BME280;46967;48.876;2.136;2022-12-29T07:01:50;100596.59;;;9.88;84.87
61086;BME280;46967;48.876;2.136;2022-12-29T07:04:16;100594.81;;;9.90;84.71
61086;BME280;46967;48.876;2.136;2022-12-29T07:06:42;100588.81;;;9.88;84.34
61086;BME280;46967;48.876;2.136;2022-12-29T07:09:08;100586.22;;;9.88;84.10
61086;BME280;46967;48.876;2.136;2022-12-29T07:11:33;100588.69;;;9.92;83.66
61086;BME280;46967;48.876;2.136;2022-12-29T07:13:59;100593.69;;;9.98;82.77
61086;BME280;46967;48.876;2.136;2022-12-29T07:16:24;100601.69;;;9.91;83.50
61086;BME280;46967;48.876;2.136;2022-12-29T07:18:50;100593.13;;;9.89;83.46
61086;BME280;46967;48.876;2.136;2022-12-29T07:21:15;100594.03;;;9.86;83.69
61086;BME280;46967;48.876;2.136;2022-12-29T07:23:41;100595.66;;;9.90;83.67
61086;BME280;46967;48.876;2.136;2022-12-29T07:26:08;100588.03;;;9.86;83.59
61086;BME280;46967;48.876;2.136;2022-12-29T07:28:35;100602.75;;;9.85;83.44
61086;BME280;46967;48.876;2.136;2022-12-29T07:31:01;100601.69;;;9.91;83.16
61086;BME280;46967;48.876;2.136;2022-12-29T07:33:30;100600.06;;;9.88;83.61
61086;BME280;46967;48.876;2.136;2022-12-29T07:35:56;100607.88;;;9.87;83.91
61086;BME280;46967;48.876;2.136;2022-12-29T07:38:22;100605.50;;;9.79;83.48
61086;BME280;46967;48.876;2.136;2022-12-29T07:40:48;100616.53;;;9.86;83.23
61086;BME280;46967;48.876;2.136;2022-12-29T07:43:13;100618.38;;;9.82;83.11
61086;BME280;46967;48.876;2.136;2022-12-29T07:45:38;100623.53;;;9.84;83.03
61086;BME280;46967;48.876;2.136;2022-12-29T07:48:04;100621.72;;;9.86;83.07
61086;BME280;46967;48.876;2.136;2022-12-29T07:50:33;100621.94;;;9.78;83.53
61086;BME280;46967;48.876;2.136;2022-12-29T07:52:58;100637.41;;;9.81;83.68
61086;BME280;46967;48.876;2.136;2022-12-29T07:55:24;100637.38;;;9.83;83.83
61086;BME280;46967;48.876;2.136;2022-12-29T07:57:49;100651.16;;;9.83;82.97
61086;BME280;46967;48.876;2.136;2022-12-29T08:00:15;100660.56;;;9.87;82.72
61086;BME280;46967;48.876;2.136;2022-12-29T08:02:40;100660.69;;;9.83;83.18
61086;BME280;46967;48.876;2.136;2022-12-29T08:05:06;100659.94;;;9.79;82.94
61086;BME280;46967;48.876;2.136;2022-12-29T08:07:31;100664.41;;;9.74;83.50
61086;BME280;46967;48.876;2.136;2022-12-29T08:09:57;100665.22;;;9.76;83.17
61086;BME280;46967;48.876;2.136;2022-12-29T08:12:22;100661.81;;;9.74;83.41
61086;BME280;46967;48.876;2.136;2022-12-29T08:14:48;100674.78;;;9.74;83.45
61086;BME280;46967;48.876;2.136;2022-12-29T08:17:13;100676.47;;;9.75;82.72
61086;BME280;46967;48.876;2.136;2022-12-29T08:19:38;100663.38;;;9.79;82.80
61086;BME280;46967;48.876;2.136;2022-12-29T08:22:05;100670.34;;;9.77;82.56
61086;BME280;46967;48.876;2.136;2022-12-29T08:24:30;100684.22;;;9.75;83.03
61086;BME280;46967;48.876;2.136;2022-12-29T08:26:55;100683.44;;;9.73;82.63
61086;BME280;46967;48.876;2.136;2022-12-29T08:29:21;100685.97;;;9.74;82.98
61086;BME280;46967;48.876;2.136;2022-12-29T08:31:47;100697.91;;;9.80;82.66
61086;BME280;46967;48.876;2.136;2022-12-29T08:34:12;100695.31;;;9.80;82.42
61086;BME280;46967;48.876;2.136;2022-12-29T08:36:37;100710.03;;;9.79;82.44
61086;BME280;46967;48.876;2.136;2022-12-29T08:39:03;100711.16;;;9.71;82.78
61086;BME280;46967;48.876;2.136;2022-12-29T08:41:28;100713.97;;;9.61;83.75
61086;BME280;46967;48.876;2.136;2022-12-29T08:43:54;100713.81;;;9.68;83.27
61086;BME280;46967;48.876;2.136;2022-12-29T08:46:19;100719.81;;;9.70;83.19
61086;BME280;46967;48.876;2.136;2022-12-29T08:48:44;100721.38;;;9.75;82.80
61086;BME280;46967;48.876;2.136;2022-12-29T08:51:10;100729.97;;;9.77;82.72
61086;BME280;46967;48.876;2.136;2022-12-29T08:53:35;100730.88;;;9.75;82.87
61086;BME280;46967;48.876;2.136;2022-12-29T08:56:02;100741.97;;;9.80;82.55
61086;BME280;46967;48.876;2.136;2022-12-29T08:58:28;100745.59;;;9.74;82.59
61086;BME280;46967;48.876;2.136;2022-12-29T09:00:55;100735.97;;;9.78;82.19
61086;BME280;46967;48.876;2.136;2022-12-29T09:03:21;100743.72;;;9.79;82.21
61086;BME280;46967;48.876;2.136;2022-12-29T09:05:51;100743.69;;;9.81;82.43
61086;BME280;46967;48.876;2.136;2022-12-29T09:08:17;100742.66;;;9.87;82.07
61086;BME280;46967;48.876;2.136;2022-12-29T09:10:43;100742.66;;;9.87;82.17
61086;BME280;46967;48.876;2.136;2022-12-29T09:13:09;100749.69;;;9.82;82.00
61086;BME280;46967;48.876;2.136;2022-12-29T09:15:35;100745.22;;;9.88;81.85
61086;BME280;46967;48.876;2.136;2022-12-29T09:18:00;100754.88;;;9.82;82.15
61086;BME280;46967;48.876;2.136;2022-12-29T09:20:25;100746.09;;;9.87;81.64
61086;BME280;46967;48.876;2.136;2022-12-29T09:22:51;100751.50;;;9.79;82.04
61086;BME280;46967;48.876;2.136;2022-12-29T09:25:16;100754.88;;;9.82;82.29
61086;BME280;46967;48.876;2.136;2022-12-29T09:27:42;100761.75;;;9.84;82.08
61086;BME280;46967;48.876;2.136;2022-12-29T09:30:10;100755.72;;;9.84;82.10
61086;BME280;46967;48.876;2.136;2022-12-29T09:32:36;100765.00;;;9.91;82.42
61086;BME280;46967;48.876;2.136;2022-12-29T09:35:02;100766.91;;;9.84;81.90
61086;BME280;46967;48.876;2.136;2022-12-29T09:37:27;100758.31;;;9.84;81.72
61086;BME280;46967;48.876;2.136;2022-12-29T09:39:53;100764.31;;;9.84;81.54
61086;BME280;46967;48.876;2.136;2022-12-29T09:45:13;100782.16;;;9.96;81.15
61086;BME280;46967;48.876;2.136;2022-12-29T09:47:40;100780.59;;;9.89;81.49
61086;BME280;46967;48.876;2.136;2022-12-29T09:53:03;100787.34;;;9.96;80.26
61086;BME280;46967;48.876;2.136;2022-12-29T09:55:42;100780.47;;;9.94;79.83
61086;BME280;46967;48.876;2.136;2022-12-29T10:04:04;100782.94;;;9.98;79.12
61086;BME280;46967;48.876;2.136;2022-12-29T10:06:59;100795.06;;;9.98;79.44
61086;BME280;46967;48.876;2.136;2022-12-29T10:09:46;100803.59;;;10.02;79.54
61086;BME280;46967;48.876;2.136;2022-12-29T10:12:29;100805.34;;;10.01;79.56
61086;BME280;46967;48.876;2.136;2022-12-29T10:17:55;100804.47;;;10.01;79.52
61086;BME280;46967;48.876;2.136;2022-12-29T10:20:53;100808.94;;;9.95;79.87
61086;BME280;46967;48.876;2.136;2022-12-29T10:23:26;100808.94;;;9.95;79.90
61086;BME280;46967;48.876;2.136;2022-12-29T10:25:57;100809.75;;;9.97;79.72
61086;BME280;46967;48.876;2.136;2022-12-29T10:28:49;100813.25;;;9.96;79.44
61086;BME280;46967;48.876;2.136;2022-12-29T10:31:20;100802.03;;;9.96;78.75
61086;BME280;46967;48.876;2.136;2022-12-29T10:33:50;100809.50;;;10.07;77.57
61086;BME280;46967;48.876;2.136;2022-12-29T10:36:39;100802.72;;;10.03;77.33
61086;BME280;46967;48.876;2.136;2022-12-29T10:39:23;100797.53;;;10.03;76.65
61086;BME280;46967;48.876;2.136;2022-12-29T10:44:24;100810.47;;;10.04;77.02
61086;BME280;46967;48.876;2.136;2022-12-29T10:47:03;100804.75;;;10.23;76.44
61086;BME280;46967;48.876;2.136;2022-12-29T10:49:32;100815.00;;;10.27;75.16
61086;BME280;46967;48.876;2.136;2022-12-29T10:52:02;100792.72;;;10.20;75.27
61086;BME280;46967;48.876;2.136;2022-12-29T10:54:33;100807.22;;;10.27;75.52
61086;BME280;46967;48.876;2.136;2022-12-29T10:57:09;100801.13;;;10.28;75.13
61086;BME280;46967;48.876;2.136;2022-12-29T10:59:37;100801.09;;;10.30;75.55
61086;BME280;46967;48.876;2.136;2022-12-29T11:07:03;100794.19;;;10.29;75.11
61086;BME280;46967;48.876;2.136;2022-12-29T11:09:31;100789.09;;;10.26;74.69
61086;BME280;46967;48.876;2.136;2022-12-29T11:11:57;100794.16;;;10.30;74.70
61086;BME280;46967;48.876;2.136;2022-12-29T11:14:29;100800.16;;;10.34;75.15
61086;BME280;46967;48.876;2.136;2022-12-29T11:17:18;100776.13;;;10.26;75.61
61086;BME280;46967;48.876;2.136;2022-12-29T11:19:43;100803.66;;;10.31;74.19
61086;BME280;46967;48.876;2.136;2022-12-29T11:22:23;100801.75;;;10.38;75.52
61086;BME280;46967;48.876;2.136;2022-12-29T11:24:51;100804.16;;;10.44;74.22
61086;BME280;46967;48.876;2.136;2022-12-29T11:27:25;100800.34;;;10.56;74.90
61086;BME280;46967;48.876;2.136;2022-12-29T11:29:52;100807.34;;;10.54;74.23
61086;BME280;46967;48.876;2.136;2022-12-29T11:32:26;100814.63;;;10.41;74.62
61086;BME280;46967;48.876;2.136;2022-12-29T11:34:52;100805.28;;;10.36;74.32
61086;BME280;46967;48.876;2.136;2022-12-29T11:37:30;100806.06;;;10.39;74.45
61086;BME280;46967;48.876;2.136;2022-12-29T11:42:43;100811.13;;;10.44;73.96
61086;BME280;46967;48.876;2.136;2022-12-29T11:45:16;100798.28;;;10.39;73.90
61086;BME280;46967;48.876;2.136;2022-12-29T11:47:52;100812.16;;;10.37;73.53
61086;BME280;46967;48.876;2.136;2022-12-29T11:50:27;100790.44;;;10.41;74.14
61086;BME280;46967;48.876;2.136;2022-12-29T11:53:03;100791.09;;;10.47;73.30
61086;BME280;46967;48.876;2.136;2022-12-29T11:55:30;100791.25;;;10.43;73.03
61086;BME280;46967;48.876;2.136;2022-12-29T11:57:59;100781.97;;;10.64;72.91
61086;BME280;46967;48.876;2.136;2022-12-29T12:00:27;100769.72;;;10.69;72.74
61086;BME280;46967;48.876;2.136;2022-12-29T12:03:02;100770.50;;;10.71;72.09
61086;BME280;46967;48.876;2.136;2022-12-29T12:08:22;100767.34;;;10.61;72.26
61086;BME280;46967;48.876;2.136;2022-12-29T12:11:04;100771.56;;;10.64;72.71
61086;BME280;46967;48.876;2.136;2022-12-29T12:13:46;100775.97;;;10.90;71.86
61086;BME280;46967;48.876;2.136;2022-12-29T12:16:33;100784.31;;;11.00;72.26
61086;BME280;46967;48.876;2.136;2022-12-29T12:19:15;100784.63;;;11.17;72.00
61086;BME280;46967;48.876;2.136;2022-12-29T12:21:49;100786.81;;;11.30;71.48
61086;BME280;46967;48.876;2.136;2022-12-29T12:30:17;100782.84;;;11.45;69.34
61086;BME280;46967;48.876;2.136;2022-12-29T12:32:54;100785.16;;;11.54;69.53
61086;BME280;46967;48.876;2.136;2022-12-29T12:35:27;100785.97;;;11.54;69.22
61086;BME280;46967;48.876;2.136;2022-12-29T12:41:00;100772.88;;;11.57;68.14
61086;BME280;46967;48.876;2.136;2022-12-29T12:51:50;100770.06;;;11.38;69.10
61086;BME280;46967;48.876;2.136;2022-12-29T12:54:27;100768.28;;;11.40;68.72
61086;BME280;46967;48.876;2.136;2022-12-29T13:10:42;100768.59;;;11.82;65.78
61086;BME280;46967;48.876;2.136;2022-12-29T13:16:27;100779.75;;;11.85;63.71
61086;BME280;46967;48.876;2.136;2022-12-29T13:22:21;100780.94;;;11.50;64.58
61086;BME280;46967;48.876;2.136;2022-12-29T13:30:17;100786.44;;;11.42;65.38
61086;BME280;46967;48.876;2.136;2022-12-29T13:38:10;100786.38;;;11.44;65.39
61086;BME280;46967;48.876;2.136;2022-12-29T13:40:41;100774.97;;;11.21;65.44
61086;BME280;46967;48.876;2.136;2022-12-29T13:43:10;100784.47;;;11.49;65.98
61086;BME280;46967;48.876;2.136;2022-12-29T13:45:37;100776.34;;;11.58;65.88
61086;BME280;46967;48.876;2.136;2022-12-29T13:48:26;100780.47;;;11.64;65.31
61086;BME280;46967;48.876;2.136;2022-12-29T13:50:58;100783.44;;;11.53;65.67
61086;BME280;46967;48.876;2.136;2022-12-29T13:56:19;100787.63;;;11.32;66.14
61086;BME280;46967;48.876;2.136;2022-12-29T14:02:03;100792.59;;;11.11;66.84
61086;BME280;46967;48.876;2.136;2022-12-29T14:04:34;100793.91;;;10.98;67.61
61086;BME280;46967;48.876;2.136;2022-12-29T14:07:05;100789.78;;;10.91;68.18
61086;BME280;46967;48.876;2.136;2022-12-29T14:09:53;100800.50;;;10.80;68.27
61086;BME280;46967;48.876;2.136;2022-12-29T14:14:46;100797.81;;;10.83;68.12
61086;BME280;46967;48.876;2.136;2022-12-29T14:17:12;100794.38;;;10.82;68.54
61086;BME280;46967;48.876;2.136;2022-12-29T14:19:42;100808.28;;;10.80;67.96
61086;BME280;46967;48.876;2.136;2022-12-29T14:22:09;100805.66;;;10.81;68.64
61086;BME280;46967;48.876;2.136;2022-12-29T14:29:50;100802.16;;;11.11;67.08
61086;BME280;46967;48.876;2.136;2022-12-29T14:34:52;100803.59;;;11.19;66.50
61086;BME280;46967;48.876;2.136;2022-12-29T14:42:38;100799.81;;;11.56;63.96
61086;BME280;46967;48.876;2.136;2022-12-29T14:47:40;100808.69;;;11.49;64.00
61086;BME280;46967;48.876;2.136;2022-12-29T14:50:23;100805.69;;;11.35;64.67
61086;BME280;46967;48.876;2.136;2022-12-29T14:52:55;100809.56;;;11.23;65.20
61086;BME280;46967;48.876;2.136;2022-12-29T14:58:27;100812.59;;;11.09;65.82
61086;BME280;46967;48.876;2.136;2022-12-29T15:00:51;100814.50;;;11.04;66.17
61086;BME280;46967;48.876;2.136;2022-12-29T15:03:43;100820.47;;;11.06;65.73
61086;BME280;46967;48.876;2.136;2022-12-29T15:06:11;100826.47;;;11.08;65.02
61086;BME280;46967;48.876;2.136;2022-12-29T15:08:50;100825.13;;;10.96;65.24
61086;BME280;46967;48.876;2.136;2022-12-29T15:11:31;100833.88;;;10.92;65.88
61086;BME280;46967;48.876;2.136;2022-12-29T15:14:35;100836.84;;;10.80;65.38
61086;BME280;46967;48.876;2.136;2022-12-29T15:17:02;100836.00;;;10.79;65.08
61086;BME280;46967;48.876;2.136;2022-12-29T15:19:34;100835.75;;;10.59;65.39